Time;durP1;ratioP1;P1;durP2;ratioP2;P2;SDS_P1;SDS_P2;PMS_P1;PMS_P2;Temp;Humidity;BMP_temperature;BMP_pressure;BME280_temperature;BME280_humidity;BME280_pressure;Samples;Min_cycle;Max_cycle;Signal;HPM_P1;HPM_P2
2023/12/28 00:02:07;;;;;;;4.40;1.80;;;9.30;99.90;;;;;;5093847;28;20211;-61
2023/12/28 00:04:34;;;;;;;4.77;1.60;;;9.30;99.90;;;;;;5094953;28;20040;-61
2023/12/28 00:07:02;;;;;;;4.28;1.70;;;9.30;99.90;;;;;;5094926;28;20083;-61
2023/12/28 00:09:27;;;;;;;4.40;1.73;;;9.20;99.90;;;;;;5094787;28;20514;-61
2023/12/28 00:11:53;;;;;;;6.07;1.73;;;9.30;99.90;;;;;;5094740;28;20044;-61
2023/12/28 00:14:19;;;;;;;4.60;1.57;;;9.30;99.90;;;;;;5094911;28;20112;-60
2023/12/28 00:16:44;;;;;;;2.83;1.30;;;9.20;99.90;;;;;;5094732;28;20092;-61
2023/12/28 00:19:10;;;;;;;3.10;1.40;;;9.20;99.90;;;;;;5093662;28;20629;-62
2023/12/28 00:21:36;;;;;;;4.67;1.80;;;9.30;99.90;;;;;;5094614;28;20521;-61
2023/12/28 00:24:02;;;;;;;3.53;1.50;;;9.30;99.90;;;;;;5094625;28;20048;-61
2023/12/28 00:26:28;;;;;;;4.63;1.70;;;9.20;99.90;;;;;;5094310;28;20059;-61
2023/12/28 00:28:54;;;;;;;4.22;1.80;;;9.20;99.90;;;;;;5094676;28;20475;-61
2023/12/28 00:31:20;;;;;;;4.07;1.80;;;9.30;99.90;;;;;;5094669;28;20055;-61
2023/12/28 00:33:45;;;;;;;4.80;1.67;;;9.30;99.90;;;;;;5094453;28;20510;-61
2023/12/28 00:36:11;;;;;;;4.00;1.43;;;9.30;99.90;;;;;;5093430;28;20134;-61
2023/12/28 00:38:37;;;;;;;4.37;1.57;;;9.30;99.90;;;;;;5094236;28;20055;-60
2023/12/28 00:41:02;;;;;;;5.90;1.87;;;9.30;99.90;;;;;;5094102;28;20044;-60
2023/12/28 00:43:28;;;;;;;4.00;1.80;;;9.30;99.90;;;;;;5094413;28;20063;-60
2023/12/28 00:45:54;;;;;;;3.93;1.70;;;9.30;99.90;;;;;;5094284;28;20490;-61
2023/12/28 00:48:19;;;;;;;5.28;1.45;;;9.30;99.90;;;;;;5094278;28;20048;-61
2023/12/28 00:50:45;;;;;;;3.60;1.50;;;9.30;99.90;;;;;;5094407;28;20048;-61
2023/12/28 00:53:11;;;;;;;3.70;1.50;;;9.30;99.90;;;;;;5094266;28;20081;-61
2023/12/28 00:55:36;;;;;;;3.97;1.50;;;9.30;99.90;;;;;;5094003;28;20051;-61
2023/12/28 00:58:02;;;;;;;4.73;1.80;;;9.30;99.90;;;;;;5094123;28;20108;-60
2023/12/28 01:00:28;;;;;;;5.87;1.80;;;9.30;99.90;;;;;;5094146;28;20052;-61
2023/12/28 01:02:54;;;;;;;3.25;1.35;;;9.30;99.90;;;;;;5092692;28;20368;-60
2023/12/28 01:05:21;;;;;;;3.80;2.00;;;9.30;99.90;;;;;;5094096;28;20044;-60
2023/12/28 01:07:46;;;;;;;;;;;9.30;99.90;;;;;;5094390;28;20051;-61
2023/12/28 01:10:12;;;;;;;4.32;1.30;;;9.40;99.90;;;;;;5093668;28;19920;-60
2023/12/28 01:12:38;;;;;;;3.60;1.43;;;9.40;99.90;;;;;;5093350;28;20052;-60
2023/12/28 01:15:04;;;;;;;5.20;1.47;;;9.40;99.90;;;;;;5093688;28;20051;-61
2023/12/28 01:17:30;;;;;;;4.97;1.40;;;9.40;99.90;;;;;;5093075;28;20139;-61
2023/12/28 01:19:55;;;;;;;4.43;1.47;;;9.50;99.90;;;;;;5093879;28;20166;-60
2023/12/28 01:22:21;;;;;;;8.43;1.80;;;9.50;99.90;;;;;;5093876;28;20044;-61
2023/12/28 01:24:49;;;;;;;5.60;1.50;;;9.50;99.90;;;;;;5093776;28;20052;-60
2023/12/28 01:27:15;;;;;;;7.30;1.90;;;9.50;99.90;;;;;;5093992;28;20059;-61
2023/12/28 01:29:40;;;;;;;7.13;1.53;;;9.50;99.90;;;;;;5093779;28;20402;-60
2023/12/28 01:32:06;;;;;;;4.57;1.73;;;9.50;99.90;;;;;;5093952;28;20552;-61
2023/12/28 01:34:32;;;;;;;7.93;1.73;;;9.50;99.90;;;;;;5093764;28;20079;-60
2023/12/28 01:36:57;;;;;;;5.93;1.83;;;9.50;99.90;;;;;;5093700;28;20047;-60
2023/12/28 01:39:23;;;;;;;4.60;1.90;;;9.40;99.90;;;;;;5093616;28;20040;-61
2023/12/28 01:41:49;;;;;;;5.77;1.60;;;9.40;99.90;;;;;;5075588;28;20399;-61
2023/12/28 01:44:14;;;;;;;7.60;1.43;;;9.40;99.90;;;;;;5093598;28;20126;-60
2023/12/28 01:46:41;;;;;;;3.20;1.40;;;9.40;99.90;;;;;;5093544;28;20040;-60
2023/12/28 01:49:07;;;;;;;4.35;1.30;;;9.40;99.90;;;;;;5093580;28;20148;-60
2023/12/28 01:51:33;;;;;;;7.78;2.00;;;9.40;99.90;;;;;;5093390;28;20407;-60
2023/12/28 01:54:00;;;;;;;4.72;1.50;;;9.40;99.90;;;;;;5093323;28;20479;-60
2023/12/28 01:56:26;;;;;;;5.63;1.40;;;9.40;99.90;;;;;;5092387;28;20048;-60
2023/12/28 01:58:53;;;;;;;4.90;1.45;;;9.40;99.90;;;;;;5093464;28;20046;-60
2023/12/28 02:01:19;;;;;;;5.97;1.10;;;9.30;99.90;;;;;;5093679;28;20043;-60
2023/12/28 02:03:45;;;;;;;3.40;1.20;;;9.30;99.90;;;;;;5093336;28;20131;-60
2023/12/28 02:06:13;;;;;;;4.05;1.13;;;9.30;99.90;;;;;;5093425;28;20036;-60
2023/12/28 02:08:39;;;;;;;3.83;1.13;;;9.30;99.90;;;;;;5093202;28;20066;-60
2023/12/28 02:11:04;;;;;;;7.63;1.60;;;9.40;99.90;;;;;;5093548;28;20471;-60
2023/12/28 02:13:30;;;;;;;3.70;1.43;;;9.30;99.90;;;;;;5093528;28;20127;-60
2023/12/28 02:16:06;;;;;;;5.33;1.90;;;9.30;99.90;;;;;;5093309;28;20153;-60
2023/12/28 02:18:42;;;;;;;8.27;1.40;;;9.30;99.90;;;;;;5093290;28;20036;-60
2023/12/28 02:21:09;;;;;;;3.40;1.40;;;9.30;99.90;;;;;;5093197;28;20392;-60
2023/12/28 02:23:34;;;;;;;5.68;1.27;;;9.30;99.90;;;;;;5093989;28;20052;-60
2023/12/28 02:26:01;;;;;;;4.77;1.37;;;9.30;99.90;;;;;;5096823;28;20044;-60
2023/12/28 02:28:26;;;;;;;6.00;1.50;;;9.30;99.90;;;;;;5097064;28;20052;-60
2023/12/28 02:30:52;;;;;;;5.67;1.60;;;9.30;99.90;;;;;;5096907;28;20043;-60
2023/12/28 02:33:38;;;;;;;5.93;1.30;;;9.30;99.90;;;;;;5096970;28;20051;-60
2023/12/28 02:36:10;;;;;;;4.20;1.15;;;9.30;99.90;;;;;;5096935;28;20076;-60
2023/12/28 02:38:37;;;;;;;4.38;1.38;;;9.30;99.90;;;;;;5096797;28;20036;-60
2023/12/28 02:41:04;;;;;;;6.50;1.65;;;9.30;99.90;;;;;;5097080;28;20074;-59
2023/12/28 02:43:31;;;;;;;8.02;1.52;;;9.30;99.90;;;;;;5095381;28;20040;-60
2023/12/28 02:45:57;;;;;;;3.63;1.30;;;9.20;99.90;;;;;;5096536;28;20051;-60
2023/12/28 02:48:23;;;;;;;6.50;1.43;;;9.30;99.90;;;;;;5096283;28;20549;-60
2023/12/28 02:50:49;;;;;;;5.40;1.20;;;9.30;99.90;;;;;;5096573;28;20044;-61
2023/12/28 02:53:14;;;;;;;7.93;1.50;;;9.30;99.90;;;;;;5095586;28;20278;-60
2023/12/28 02:55:40;;;;;;;5.73;1.10;;;9.30;99.90;;;;;;5096601;28;20040;-59
2023/12/28 02:58:06;;;;;;;4.23;1.43;;;9.40;99.90;;;;;;5096213;28;20391;-60
2023/12/28 03:00:31;;;;;;;7.60;1.43;;;9.40;99.90;;;;;;5096286;28;20048;-61
2023/12/28 03:02:57;;;;;;;6.27;2.00;;;9.40;99.90;;;;;;5095989;28;20048;-60
2023/12/28 03:05:23;;;;;;;5.88;1.60;;;9.40;99.90;;;;;;5096575;28;20043;-61
2023/12/28 03:07:48;;;;;;;3.50;1.27;;;9.50;99.90;;;;;;5096198;28;20051;-60
2023/12/28 03:10:14;;;;;;;3.83;1.50;;;9.50;99.90;;;;;;5096118;28;20433;-60
2023/12/28 03:12:40;;;;;;;5.27;1.50;;;9.50;99.90;;;;;;5096141;28;20044;-60
2023/12/28 03:15:06;;;;;;;4.88;1.55;;;9.50;99.90;;;;;;5095863;28;20040;-60
2023/12/28 03:17:32;;;;;;;7.70;1.23;;;9.50;99.90;;;;;;5095917;28;20040;-60
2023/12/28 03:20:01;;;;;;;4.68;1.20;;;9.60;99.90;;;;;;5095919;28;20051;-60
2023/12/28 03:22:26;;;;;;;3.97;1.15;;;9.60;99.90;;;;;;5095899;28;20498;-61
2023/12/28 03:24:52;;;;;;;9.57;1.63;;;9.60;99.90;;;;;;5094437;28;20040;-61
2023/12/28 03:27:18;;;;;;;3.90;1.47;;;9.60;99.90;;;;;;5095494;28;20056;-61
2023/12/28 03:29:44;;;;;;;6.70;1.63;;;9.70;99.90;;;;;;5095697;28;20475;-60
2023/12/28 03:32:10;;;;;;;7.63;1.40;;;9.70;99.90;;;;;;5095665;28;20048;-61
2023/12/28 03:34:36;;;;;;;5.88;1.40;;;9.80;99.90;;;;;;5095827;28;20286;-61
2023/12/28 03:37:02;;;;;;;6.53;0.87;;;9.80;99.90;;;;;;5094724;28;20510;-61
2023/12/28 03:39:28;;;;;;;4.90;1.25;;;9.80;99.90;;;;;;5095613;28;20040;-60
2023/12/28 03:41:53;;;;;;;6.30;1.40;;;9.90;99.90;;;;;;5095557;28;20548;-61
2023/12/28 03:44:20;;;;;;;4.03;1.40;;;9.90;99.90;;;;;;5095385;28;20101;-60
2023/12/28 03:46:48;;;;;;;3.88;0.90;;;9.90;99.90;;;;;;5095122;28;20047;-60
2023/12/28 03:49:18;;;;;;;5.05;1.23;;;10.00;99.90;;;;;;5095538;28;20368;-60
2023/12/28 03:51:44;;;;;;;5.80;1.10;;;10.00;99.90;;;;;;5095306;28;20086;-61
2023/12/28 03:54:10;;;;;;;6.57;1.20;;;10.00;99.90;;;;;;5095278;28;20398;-60
2023/12/28 03:56:39;;;;;;;6.17;1.23;;;10.00;99.90;;;;;;5095176;28;20040;-60
2023/12/28 03:59:05;;;;;;;5.85;1.40;;;10.00;99.90;;;;;;5094921;28;20282;-59
2023/12/28 04:01:31;;;;;;;4.45;1.42;;;10.10;99.90;;;;;;5094997;28;20048;-59
2023/12/28 04:03:56;;;;;;;5.53;1.27;;;10.10;99.90;;;;;;5095192;28;20062;-60
2023/12/28 04:06:22;;;;;;;3.23;1.00;;;10.10;99.90;;;;;;5094916;28;20040;-62
2023/12/28 04:08:48;;;;;;;5.37;0.90;;;10.10;99.90;;;;;;5094989;28;20040;-60
2023/12/28 04:11:14;;;;;;;3.90;0.90;;;10.10;99.90;;;;;;5093749;28;20051;-60
2023/12/28 04:13:40;;;;;;;5.77;1.37;;;10.10;99.90;;;;;;5094854;28;20044;-60
2023/12/28 04:16:06;;;;;;;6.13;1.53;;;10.10;99.90;;;;;;5093764;28;20728;-60
2023/12/28 04:18:32;;;;;;;5.70;1.10;;;10.10;99.90;;;;;;5094905;28;20051;-60
2023/12/28 04:20:58;;;;;;;7.63;1.35;;;10.20;99.90;;;;;;5094740;28;20048;-60
2023/12/28 04:23:24;;;;;;;5.53;1.30;;;10.20;99.90;;;;;;5094969;28;20415;-60
2023/12/28 04:25:50;;;;;;;6.55;1.55;;;10.20;99.90;;;;;;5094537;28;20044;-59
2023/12/28 04:28:16;;;;;;;4.13;1.07;;;10.20;99.90;;;;;;5094563;28;20384;-60
2023/12/28 04:30:41;;;;;;;4.47;1.00;;;10.20;99.90;;;;;;5094581;28;20048;-61
2023/12/28 04:33:07;;;;;;;6.33;1.57;;;10.20;99.90;;;;;;5094798;28;20487;-60
2023/12/28 04:35:33;;;;;;;6.95;1.15;;;10.20;99.90;;;;;;5094435;28;20483;-60
2023/12/28 04:37:58;;;;;;;6.17;1.17;;;10.30;99.90;;;;;;5094454;28;20051;-60
2023/12/28 04:40:24;;;;;;;6.63;1.33;;;10.30;99.90;;;;;;5094414;28;20046;-60
2023/12/28 04:42:50;;;;;;;3.93;1.33;;;10.30;99.90;;;;;;5093510;28;20084;-61
2023/12/28 04:45:15;;;;;;;4.07;1.03;;;10.30;99.90;;;;;;5094200;28;20036;-59
2023/12/28 04:47:41;;;;;;;4.70;1.37;;;10.30;99.90;;;;;;5092187;28;20048;-60
2023/12/28 04:50:07;;;;;;;5.57;1.23;;;10.30;99.90;;;;;;5094770;28;20127;-60
2023/12/28 04:52:33;;;;;;;6.57;1.27;;;10.30;99.90;;;;;;5093081;28;20791;-61
2023/12/28 04:54:59;;;;;;;8.93;1.57;;;10.40;99.90;;;;;;5094036;28;20274;-60
2023/12/28 04:57:26;;;;;;;8.93;1.33;;;10.40;99.90;;;;;;5094118;28;20047;-60
2023/12/28 04:59:52;;;;;;;3.95;1.23;;;10.40;99.90;;;;;;5094007;28;20097;-61
2023/12/28 05:02:18;;;;;;;4.70;1.30;;;10.40;99.90;;;;;;5094202;28;20052;-61
2023/12/28 05:04:43;;;;;;;3.30;1.03;;;10.40;99.90;;;;;;5093985;28;20083;-60
2023/12/28 05:07:09;;;;;;;8.97;1.60;;;10.50;99.90;;;;;;5094009;28;20090;-60
2023/12/28 05:09:35;;;;;;;5.10;1.05;;;10.50;99.90;;;;;;5094213;28;20048;-61
2023/12/28 05:12:01;;;;;;;5.77;1.07;;;10.50;99.90;;;;;;5093160;28;20074;-61
2023/12/28 05:14:26;;;;;;;9.93;1.33;;;10.50;99.90;;;;;;5093997;28;20056;-60
2023/12/28 05:16:52;;;;;;;9.17;1.30;;;10.50;99.90;;;;;;5093931;28;20292;-60
2023/12/28 05:19:18;;;;;;;6.63;1.80;;;10.50;99.90;;;;;;5093775;28;20055;-61
2023/12/28 05:21:44;;;;;;;4.57;1.50;;;10.50;99.90;;;;;;5094003;28;20051;-62
2023/12/28 05:24:09;;;;;;;9.30;1.30;;;10.50;99.90;;;;;;5093874;28;20139;-61
2023/12/28 05:26:35;;;;;;;5.83;1.53;;;10.50;99.90;;;;;;5093750;28;20047;-60
2023/12/28 05:29:01;;;;;;;5.93;0.97;;;10.50;99.90;;;;;;5093531;28;20182;-60
2023/12/28 05:31:26;;;;;;;6.57;0.97;;;10.50;99.90;;;;;;5093958;28;20137;-61
2023/12/28 05:33:52;;;;;;;5.40;1.10;;;10.50;99.90;;;;;;5093680;28;20399;-62
2023/12/28 05:36:18;;;;;;;7.43;1.23;;;10.50;99.90;;;;;;5093528;28;20118;-62
2023/12/28 05:38:44;;;;;;;7.60;1.90;;;10.50;99.90;;;;;;5093944;28;20145;-61
2023/12/28 05:41:11;;;;;;;4.43;1.02;;;10.50;99.90;;;;;;5092461;28;20051;-61
2023/12/28 05:43:37;;;;;;;6.47;1.00;;;10.50;99.90;;;;;;5093392;28;20054;-61
2023/12/28 05:46:03;;;;;;;6.18;1.40;;;10.50;99.90;;;;;;5093550;28;20430;-61
2023/12/28 05:48:29;;;;;;;4.57;1.00;;;10.50;99.90;;;;;;5093833;28;20040;-61
2023/12/28 05:50:54;;;;;;;3.97;1.00;;;10.50;99.90;;;;;;5093789;28;20051;-61
2023/12/28 05:53:20;;;;;;;7.90;1.20;;;10.50;99.90;;;;;;5092351;28;20122;-62
2023/12/28 05:55:45;;;;;;;8.67;3.10;;;10.50;99.90;;;;;;5092152;28;20075;-61
2023/12/28 05:58:11;;;;;;;6.77;1.40;;;10.50;99.90;;;;;;5093468;28;20048;-61
2023/12/28 06:00:38;;;;;;;6.70;1.40;;;10.50;99.90;;;;;;5097495;28;20131;-61
2023/12/28 06:03:04;;;;;;;7.53;1.23;;;10.50;99.90;;;;;;5097800;28;20044;-62
2023/12/28 06:05:30;;;;;;;10.75;2.55;;;10.50;99.90;;;;;;5097378;28;20429;-60
2023/12/28 06:07:56;;;;;;;11.52;1.33;;;10.60;99.90;;;;;;5097250;28;20109;-62
2023/12/28 06:10:22;;;;;;;6.60;1.30;;;10.60;99.90;;;;;;5097334;28;20097;-62
2023/12/28 06:12:47;;;;;;;10.97;1.53;;;10.50;99.90;;;;;;5097111;28;20407;-61
2023/12/28 06:15:13;;;;;;;4.87;1.10;;;10.50;99.90;;;;;;5097223;28;20498;-61
2023/12/28 06:17:39;;;;;;;5.57;1.10;;;10.60;99.90;;;;;;5097052;28;20410;-61
2023/12/28 06:20:05;;;;;;;4.47;0.90;;;10.50;99.90;;;;;;5097382;28;20136;-63
2023/12/28 06:22:31;;;;;;;6.57;1.08;;;10.50;99.90;;;;;;5096924;28;20570;-62
2023/12/28 06:24:57;;;;;;;11.30;1.07;;;10.40;99.90;;;;;;5096927;28;20127;-62
2023/12/28 06:27:25;;;;;;;7.63;1.33;;;10.50;99.90;;;;;;5097006;28;20063;-61
2023/12/28 06:29:51;;;;;;;4.88;1.20;;;10.50;99.90;;;;;;5096827;28;20301;-61
2023/12/28 06:32:17;;;;;;;13.33;1.37;;;10.50;99.90;;;;;;5096924;28;20051;-62
2023/12/28 06:34:42;;;;;;;7.27;1.00;;;10.50;99.90;;;;;;5096737;28;20044;-61
2023/12/28 06:37:08;;;;;;;7.77;1.20;;;10.50;99.90;;;;;;5096786;28;20043;-61
2023/12/28 06:39:34;;;;;;;9.47;1.97;;;10.50;99.90;;;;;;5095953;28;20123;-61
2023/12/28 06:41:59;;;;;;;6.67;1.13;;;10.50;99.90;;;;;;5096640;28;20050;-61
2023/12/28 06:44:25;;;;;;;8.50;1.60;;;10.50;99.90;;;;;;5096730;28;20100;-61
2023/12/28 06:46:51;;;;;;;7.33;1.43;;;10.50;99.90;;;;;;5096517;28;20586;-62
2023/12/28 06:49:16;;;;;;;8.40;1.50;;;10.50;99.90;;;;;;5096458;28;20052;-61
2023/12/28 06:51:44;;;;;;;7.27;1.30;;;10.50;99.90;;;;;;5096491;28;20047;-61
2023/12/28 06:54:10;;;;;;;5.00;0.98;;;10.60;99.90;;;;;;5095365;28;20097;-61
2023/12/28 06:56:36;;;;;;;3.53;0.90;;;10.60;99.90;;;;;;5096093;28;20433;-63
2023/12/28 06:59:01;;;;;;;9.47;1.33;;;10.60;99.90;;;;;;5095195;28;20136;-61
2023/12/28 07:01:27;;;;;;;9.87;1.20;;;10.60;99.90;;;;;;5096278;28;20090;-62
2023/12/28 07:03:53;;;;;;;8.63;1.87;;;10.60;99.90;;;;;;5096428;28;20158;-62
2023/12/28 07:06:18;;;;;;;6.10;1.20;;;10.60;99.90;;;;;;5096321;28;20059;-62
2023/12/28 07:08:44;;;;;;;9.23;1.93;;;10.70;99.90;;;;;;5095930;28;20052;-62
2023/12/28 07:11:11;;;;;;;6.17;1.47;;;10.70;99.90;;;;;;5094875;28;20051;-60
2023/12/28 07:13:37;;;;;;;10.38;2.13;;;10.70;99.90;;;;;;5096271;28;20043;-62
2023/12/28 07:16:03;;;;;;;4.43;0.83;;;10.70;99.90;;;;;;5096318;28;20411;-63
2023/12/28 07:18:28;;;;;;;11.38;1.65;;;10.70;99.90;;;;;;5095927;28;20749;-62
2023/12/28 07:20:54;;;;;;;3.57;0.60;;;10.70;99.90;;;;;;5095071;28;20040;-64
2023/12/28 07:23:20;;;;;;;5.27;0.90;;;10.70;99.90;;;;;;5094869;28;20081;-62
2023/12/28 07:25:46;;;;;;;8.13;2.57;;;10.70;99.90;;;;;;5095630;28;20514;-63
2023/12/28 07:28:11;;;;;;;7.63;1.37;;;10.70;99.90;;;;;;5095053;28;20055;-63
2023/12/28 07:30:37;;;;;;;6.33;1.03;;;10.70;99.90;;;;;;5095943;28;20071;-62
2023/12/28 07:33:03;;;;;;;7.78;1.50;;;10.70;99.90;;;;;;5096169;28;20122;-62
2023/12/28 07:35:29;;;;;;;9.35;1.23;;;10.70;99.90;;;;;;5095619;28;20496;-62
2023/12/28 07:37:55;;;;;;;6.47;1.03;;;10.70;99.90;;;;;;5095583;28;20090;-63
2023/12/28 07:40:21;;;;;;;5.23;1.50;;;10.70;99.90;;;;;;5095362;28;20066;-62
2023/12/28 07:42:46;;;;;;;10.27;1.33;;;10.70;99.90;;;;;;5095351;28;20498;-62
2023/12/28 07:45:12;;;;;;;5.27;0.97;;;10.70;99.90;;;;;;5095395;28;20036;-62
2023/12/28 07:47:38;;;;;;;10.37;1.43;;;10.80;99.90;;;;;;5095538;28;20047;-62
2023/12/28 07:50:04;;;;;;;10.87;1.27;;;10.80;99.90;;;;;;5095400;28;20483;-62
2023/12/28 07:52:30;;;;;;;13.50;1.55;;;10.80;99.90;;;;;;5094560;28;20043;-63
2023/12/28 07:54:55;;;;;;;9.13;1.80;;;10.80;99.90;;;;;;5095312;28;20039;-62
2023/12/28 07:57:21;;;;;;;5.60;0.90;;;10.80;99.90;;;;;;5095060;28;20051;-61
2023/12/28 07:59:47;;;;;;;10.77;1.45;;;10.80;99.90;;;;;;5095555;28;20552;-62
2023/12/28 08:02:13;;;;;;;10.77;1.60;;;10.80;99.90;;;;;;5095290;28;20040;-61
2023/12/28 08:04:38;;;;;;;8.10;1.53;;;10.80;99.90;;;;;;5095003;28;20278;-60
2023/12/28 08:07:04;;;;;;;12.67;1.33;;;10.80;99.90;;;;;;5095178;28;20048;-63
2023/12/28 08:09:30;;;;;;;10.50;1.23;;;10.80;99.90;;;;;;5094902;28;20079;-62
2023/12/28 08:11:56;;;;;;;9.55;1.90;;;10.80;99.90;;;;;;5093900;28;20055;-61
2023/12/28 08:14:21;;;;;;;11.57;1.87;;;10.80;99.90;;;;;;5095142;28;20040;-62
2023/12/28 08:16:47;;;;;;;10.23;2.90;;;10.90;99.90;;;;;;5095582;28;20398;-62
2023/12/28 08:19:13;;;;;;;6.33;1.50;;;10.90;99.90;;;;;;5094924;28;20052;-62
2023/12/28 08:21:39;;;;;;;10.00;1.98;;;10.90;99.90;;;;;;5127505;27;20040;-61
2023/12/28 08:24:05;;;;;;;9.93;1.37;;;10.90;99.90;;;;;;5093494;28;20044;-62
2023/12/28 08:26:32;;;;;;;9.80;1.20;;;10.90;99.90;;;;;;5094280;28;20078;-61
2023/12/28 08:28:58;;;;;;;9.43;1.48;;;11.00;99.90;;;;;;5094613;28;20052;-62
2023/12/28 08:31:24;;;;;;;10.82;1.52;;;10.90;99.90;;;;;;5093727;28;20047;-62
2023/12/28 08:33:50;;;;;;;10.03;1.60;;;11.00;99.90;;;;;;5094669;28;20044;-62
2023/12/28 08:36:17;;;;;;;9.00;1.30;;;11.00;99.90;;;;;;5094490;28;20119;-62
2023/12/28 08:38:43;;;;;;;11.77;1.38;;;11.00;99.90;;;;;;5094253;28;20127;-61
2023/12/28 08:41:21;;;;;;;14.00;3.10;;;11.00;99.90;;;;;;5094447;28;20487;-61
2023/12/28 08:43:47;;;;;;;8.77;1.73;;;11.10;99.90;;;;;;5094643;28;20445;-62
2023/12/28 08:46:14;;;;;;;18.00;1.90;;;11.10;99.90;;;;;;5094255;28;20036;-62
2023/12/28 08:48:41;;;;;;;12.57;2.03;;;11.10;99.90;;;;;;5094215;28;20052;-62
2023/12/28 08:51:06;;;;;;;9.25;1.88;;;11.10;99.90;;;;;;5094236;28;20079;-62
2023/12/28 08:53:32;;;;;;;8.77;1.57;;;11.10;99.90;;;;;;5093975;28;20530;-61
2023/12/28 08:55:58;;;;;;;13.40;1.60;;;11.10;99.90;;;;;;5094217;28;20066;-61
2023/12/28 08:58:23;;;;;;;9.73;1.40;;;11.10;99.90;;;;;;5094153;28;20044;-61
2023/12/28 09:00:49;;;;;;;11.90;1.33;;;11.10;99.90;;;;;;5092918;28;20101;-61
2023/12/28 09:03:15;;;;;;;19.17;2.60;;;11.00;99.90;;;;;;5094069;28;20048;-62
2023/12/28 09:05:41;;;;;;;12.37;1.43;;;11.00;99.90;;;;;;5092754;28;20047;-61
2023/12/28 09:08:07;;;;;;;13.03;1.40;;;11.10;99.90;;;;;;5094039;28;20048;-62
2023/12/28 09:10:33;;;;;;;12.70;1.67;;;11.10;99.90;;;;;;5094004;28;20193;-63
2023/12/28 09:12:59;;;;;;;13.82;1.65;;;11.10;99.90;;;;;;5092862;28;20554;-61
2023/12/28 09:15:25;;;;;;;16.20;2.47;;;11.10;99.90;;;;;;5093799;28;20048;-62
2023/12/28 09:17:50;;;;;;;12.73;1.63;;;11.10;99.90;;;;;;5093803;28;20048;-61
2023/12/28 09:20:16;;;;;;;9.90;1.37;;;11.20;99.90;;;;;;5093688;28;20059;-62
2023/12/28 09:22:42;;;;;;;9.60;1.70;;;11.10;99.90;;;;;;5093701;28;20119;-62
2023/12/28 09:25:08;;;;;;;13.47;1.67;;;11.10;99.90;;;;;;5092582;28;20048;-61
2023/12/28 09:27:33;;;;;;;9.80;1.13;;;11.10;99.90;;;;;;5093934;28;20143;-62
2023/12/28 09:29:59;;;;;;;8.07;1.20;;;11.10;99.90;;;;;;5093901;28;20788;-60
2023/12/28 09:32:24;;;;;;;9.27;1.50;;;11.10;99.90;;;;;;5093638;28;20079;-61
2023/12/28 09:34:50;;;;;;;10.17;1.73;;;11.10;99.90;;;;;;5098540;28;20052;-62
2023/12/28 09:37:16;;;;;;;10.07;2.00;;;11.20;99.90;;;;;;5100435;28;20050;-62
2023/12/28 09:39:42;;;;;;;12.73;2.63;;;11.20;99.90;;;;;;5100715;28;20395;-61
2023/12/28 09:42:22;;;;;;;9.55;1.92;;;11.20;99.90;;;;;;5100463;28;20048;-62
2023/12/28 09:44:48;;;;;;;11.82;1.83;;;11.20;99.90;;;;;;5100357;28;20052;-61
2023/12/28 09:47:15;;;;;;;;;;;11.20;99.90;;;;;;5100721;28;20056;-62
2023/12/28 09:49:42;;;;;;;9.35;2.25;;;11.20;99.90;;;;;;5100240;28;19959;-62
2023/12/28 09:52:08;;;;;;;6.90;1.10;;;11.20;99.90;;;;;;5100290;28;20088;-61
2023/12/28 09:54:35;;;;;;;5.50;1.10;;;11.20;99.90;;;;;;5100641;28;20090;-61
2023/12/28 09:57:01;;;;;;;9.52;1.30;;;11.20;99.90;;;;;;5100238;28;20044;-62
2023/12/28 09:59:28;;;;;;;11.68;2.33;;;11.20;99.90;;;;;;5100198;28;20052;-62
2023/12/28 10:01:55;;;;;;;14.52;3.28;;;11.20;99.90;;;;;;5100173;28;20401;-62
2023/12/28 10:04:21;;;;;;;14.27;1.80;;;11.10;99.90;;;;;;5100230;28;20052;-61
2023/12/28 10:06:47;;;;;;;12.63;2.90;;;11.10;99.90;;;;;;5100275;28;20123;-61
2023/12/28 10:09:13;;;;;;;12.52;2.30;;;11.10;99.90;;;;;;5099386;28;20452;-63
2023/12/28 10:11:39;;;;;;;13.20;2.87;;;11.10;99.90;;;;;;5100394;28;20086;-61
2023/12/28 10:14:06;;;;;;;11.85;1.80;;;11.00;99.90;;;;;;5099968;28;20052;-61
2023/12/28 10:16:32;;;;;;;8.93;1.65;;;11.00;99.90;;;;;;5099938;28;20530;-61
2023/12/28 10:18:58;;;;;;;16.80;2.97;;;11.10;99.90;;;;;;5099784;28;20079;-61
2023/12/28 10:21:24;;;;;;;13.20;2.00;;;11.10;99.90;;;;;;5099975;28;20048;-61
2023/12/28 10:23:50;;;;;;;9.73;1.70;;;11.10;99.90;;;;;;5100414;28;20051;-62
2023/12/28 10:26:18;;;;;;;13.00;2.73;;;11.10;99.90;;;;;;5099858;28;20139;-62
2023/12/28 10:28:44;;;;;;;12.45;1.92;;;11.10;99.90;;;;;;5100000;28;20060;-63
2023/12/28 10:31:10;;;;;;;12.90;2.60;;;11.10;99.90;;;;;;5098732;28;20055;-62
2023/12/28 10:33:36;;;;;;;9.97;2.20;;;11.10;99.90;;;;;;5099753;28;20047;-62
2023/12/28 10:36:06;;;;;;;9.82;2.38;;;11.10;99.90;;;;;;5100285;28;20042;-62
2023/12/28 10:38:36;;;;;;;14.60;3.03;;;11.10;99.90;;;;;;5100089;28;20464;-62
2023/12/28 10:41:06;;;;;;;14.32;2.33;;;11.10;99.90;;;;;;5099759;28;20040;-62
2023/12/28 10:43:42;;;;;;;8.32;1.70;;;11.10;99.90;;;;;;5100069;28;20055;-62
2023/12/28 10:46:09;;;;;;;11.90;1.70;;;11.20;99.90;;;;;;5097154;28;20044;-63
2023/12/28 10:48:41;;;;;;;13.73;2.80;;;11.20;99.90;;;;;;5096593;28;20107;-62
2023/12/28 10:51:10;;;;;;;5.95;1.23;;;11.20;99.90;;;;;;5096609;28;20087;-62
2023/12/28 10:53:52;;;;;;;12.15;2.25;;;11.20;99.90;;;;;;5096258;28;20506;-61
2023/12/28 10:56:33;;;;;;;9.95;1.65;;;11.20;99.90;;;;;;5096402;28;20048;-62
2023/12/28 10:59:18;;;;;;;8.70;1.52;;;11.20;99.90;;;;;;5096517;28;20048;-62
2023/12/28 11:01:49;;;;;;;10.48;1.73;;;11.20;99.90;;;;;;5096367;28;20132;-63
2023/12/28 11:04:31;;;;;;;8.95;1.48;;;11.20;99.90;;;;;;5096351;28;20050;-62
2023/12/28 11:06:59;;;;;;;7.68;2.35;;;11.20;99.90;;;;;;5096123;28;20044;-62
2023/12/28 11:09:28;;;;;;;15.18;1.83;;;11.20;99.90;;;;;;5096240;28;20047;-62
2023/12/28 11:11:58;;;;;;;11.00;1.80;;;11.20;99.90;;;;;;5096289;28;20055;-62
2023/12/28 11:14:25;;;;;;;9.55;1.55;;;11.20;99.90;;;;;;5096464;28;20036;-63
2023/12/28 11:16:52;;;;;;;14.63;2.50;;;11.20;99.90;;;;;;5096089;28;20556;-62
2023/12/28 11:19:18;;;;;;;13.60;1.95;;;11.20;99.90;;;;;;5096009;28;20052;-62
2023/12/28 11:21:44;;;;;;;7.72;1.95;;;11.20;99.90;;;;;;5094898;28;20083;-62
2023/12/28 11:24:10;;;;;;;11.23;3.17;;;11.20;99.90;;;;;;5095925;28;20051;-62
2023/12/28 11:26:36;;;;;;;8.55;1.65;;;11.20;99.90;;;;;;5095796;28;20075;-62
2023/12/28 11:29:05;;;;;;;9.13;1.60;;;11.20;99.90;;;;;;5094708;28;20471;-62
2023/12/28 11:31:35;;;;;;;11.57;2.42;;;11.20;99.90;;;;;;5095697;28;20411;-61
2023/12/28 11:34:01;;;;;;;10.73;1.90;;;11.20;99.90;;;;;;5094756;28;20044;-61
2023/12/28 11:36:43;;;;;;;12.85;1.90;;;11.20;99.90;;;;;;5095473;28;20045;-62
2023/12/28 11:39:10;;;;;;;12.45;2.00;;;11.20;99.90;;;;;;5094735;28;20097;-62
2023/12/28 11:41:36;;;;;;;9.20;1.80;;;11.20;99.90;;;;;;5095597;28;20135;-63
2023/12/28 11:44:05;;;;;;;;;;;11.30;99.90;;;;;;5096050;28;20078;-62
2023/12/28 11:46:38;;;;;;;8.48;1.58;;;11.30;99.90;;;;;;5095402;28;20031;-62
2023/12/28 11:49:08;;;;;;;15.25;2.10;;;11.30;99.90;;;;;;5094068;28;20061;-64
2023/12/28 11:51:37;;;;;;;10.25;2.22;;;11.30;99.90;;;;;;5095465;28;20040;-60
2023/12/28 11:54:03;;;;;;;10.13;1.92;;;11.20;99.90;;;;;;5094564;28;20044;-62
2023/12/28 11:56:30;;;;;;;17.77;2.92;;;11.20;99.90;;;;;;5094777;28;20044;-62
2023/12/28 11:58:55;;;;;;;8.90;1.73;;;11.20;99.90;;;;;;5095270;28;20487;-61
2023/12/28 12:01:21;;;;;;;9.35;2.50;;;11.10;99.90;;;;;;5095025;28;20094;-62
2023/12/28 12:03:49;;;;;;;9.30;2.03;;;11.10;99.90;;;;;;5095189;28;20035;-62
2023/12/28 12:06:14;;;;;;;9.52;1.75;;;11.10;99.90;;;;;;5093850;28;20302;-62
2023/12/28 12:08:40;;;;;;;14.70;2.30;;;11.10;99.90;;;;;;5095128;28;20051;-62
2023/12/28 12:11:06;;;;;;;9.00;1.67;;;11.10;99.90;;;;;;5095098;28;20048;-61
2023/12/28 12:13:33;;;;;;;14.52;2.25;;;11.10;99.90;;;;;;5095000;28;20083;-62
2023/12/28 12:15:59;;;;;;;11.13;1.65;;;11.10;99.90;;;;;;5094901;28;20039;-63
2023/12/28 12:18:26;;;;;;;12.82;2.20;;;11.10;99.90;;;;;;5094966;28;20104;-62
2023/12/28 12:20:51;;;;;;;11.73;1.95;;;11.10;99.90;;;;;;5094786;28;20399;-62
2023/12/28 12:23:17;;;;;;;12.80;2.00;;;11.10;99.90;;;;;;5094859;28;20048;-62
2023/12/28 12:25:45;;;;;;;10.03;2.07;;;11.10;99.90;;;;;;5094614;28;20040;-61
2023/12/28 12:28:11;;;;;;;12.13;2.25;;;11.10;99.90;;;;;;5094524;28;20525;-62
2023/12/28 12:30:37;;;;;;;10.90;1.40;;;11.10;99.90;;;;;;5093196;28;20055;-62
2023/12/28 12:33:03;;;;;;;9.18;2.08;;;11.00;99.90;;;;;;5094663;28;20471;-63
2023/12/28 12:35:31;;;;;;;9.43;1.90;;;11.00;99.90;;;;;;5094549;28;20032;-62
2023/12/28 12:37:57;;;;;;;8.45;1.52;;;11.00;99.90;;;;;;5094577;28;20063;-63
2023/12/28 12:40:23;;;;;;;8.70;1.85;;;11.00;99.90;;;;;;5094561;28;20483;-62
2023/12/28 12:42:53;;;;;;;10.80;2.00;;;11.00;99.90;;;;;;5094379;28;20455;-62
2023/12/28 12:45:21;;;;;;;13.57;1.98;;;11.00;99.90;;;;;;5094027;28;20513;-62